Time;durP1;ratioP1;P1;durP2;ratioP2;P2;SDS_P1;SDS_P2;PMS_P1;PMS_P2;Temp;Humidity;BMP_temperature;BMP_pressure;BME280_temperature;BME280_humidity;BME280_pressure;Samples;Min_cycle;Max_cycle;Signal;HPM_P1;HPM_P2
2023/09/05 00:02:13;;;;;;;4.72;4.32;;;;;;;;;;5023903;28;20232;-70
2023/09/05 00:04:41;;;;;;;6.28;4.60;;;;;;;;;;5028711;28;20191;-70
2023/09/05 00:07:07;;;;;;;6.65;4.03;;;;;;;;;;5023621;28;20209;-69
2023/09/05 00:09:32;;;;;;;6.95;3.90;;;;;;;;;;5022284;28;20193;-70
2023/09/05 00:11:57;;;;;;;8.40;4.32;;;;;;;;;;5027503;28;20249;-71
2023/09/05 00:14:23;;;;;;;5.68;4.03;;;;;;;;;;5030000;28;20629;-70
2023/09/05 00:16:48;;;;;;;7.13;4.05;;;;;;;;;;5027679;28;20213;-70
2023/09/05 00:19:13;;;;;;;4.95;4.45;;;;;;;;;;5037483;28;20178;-71
2023/09/05 00:21:38;;;;;;;5.68;3.97;;;;;;;;;;5035182;28;20253;-71
2023/09/05 00:24:22;;;;;;;8.60;4.28;;;;;;;;;;5028839;28;20189;-70
2023/09/05 00:26:48;;;;;;;7.65;4.20;;;;;;;;;;5035997;23;20237;-64
2023/09/05 00:29:13;;;;;;;9.95;4.47;;;;;;;;;;5032124;28;20177;-66
2023/09/05 00:31:40;;;;;;;6.20;3.97;;;;;;;;;;5020895;28;20182;-65
2023/09/05 00:34:05;;;;;;;6.22;4.47;;;;;;;;;;5025239;28;20214;-65
2023/09/05 00:36:30;;;;;;;7.65;4.07;;;;;;;;;;5024022;28;20230;-64
2023/09/05 00:38:56;;;;;;;6.15;4.18;;;;;;;;;;5019897;28;20179;-65
2023/09/05 00:41:21;;;;;;;6.70;4.53;;;;;;;;;;5022399;28;20538;-65
2023/09/05 00:43:49;;;;;;;4.30;3.90;;;;;;;;;;5022549;28;20178;-66
2023/09/05 00:46:14;;;;;;;4.07;3.53;;;;;;;;;;5027339;28;20260;-64
2023/09/05 00:48:40;;;;;;;5.85;4.20;;;;;;;;;;5027550;28;20660;-65
2023/09/05 00:51:05;;;;;;;5.78;4.18;;;;;;;;;;5022975;28;20585;-65
2023/09/05 00:53:30;;;;;;;5.28;4.00;;;;;;;;;;5019326;28;20170;-65
2023/09/05 00:55:56;;;;;;;4.53;4.10;;;;;;;;;;5018229;28;20211;-65
2023/09/05 00:58:21;;;;;;;6.63;3.90;;;;;;;;;;5019716;28;20244;-65
2023/09/05 01:00:46;;;;;;;5.88;3.88;;;;;;;;;;5019471;28;20561;-65
2023/09/05 01:03:12;;;;;;;5.28;4.57;;;;;;;;;;5025860;28;20209;-65
2023/09/05 01:05:39;;;;;;;4.43;4.03;;;;;;;;;;5022654;28;20300;-65
2023/09/05 01:08:31;;;;;;;4.20;3.50;;;;;;;;;;5017574;28;20186;-65
2023/09/05 01:10:56;;;;;;;4.35;3.90;;;;;;;;;;5041680;28;20197;-66
2023/09/05 01:13:25;;;;;;;5.30;3.70;;;;;;;;;;5027389;28;20170;-65
2023/09/05 01:15:51;;;;;;;5.97;4.80;;;;;;;;;;5028008;28;20256;-66
2023/09/05 01:18:16;;;;;;;6.65;3.83;;;;;;;;;;5021725;28;20653;-66
2023/09/05 01:20:54;;;;;;;5.57;4.40;;;;;;;;;;5028552;28;20213;-65
2023/09/05 01:23:21;;;;;;;6.68;4.30;;;;;;;;;;5026613;28;20204;-65
2023/09/05 01:25:47;;;;;;;6.72;4.30;;;;;;;;;;5024814;28;20680;-66
2023/09/05 01:28:13;;;;;;;4.97;4.20;;;;;;;;;;5027145;28;20236;-66
2023/09/05 01:30:40;;;;;;;4.85;3.90;;;;;;;;;;5023978;28;20173;-65
2023/09/05 01:33:05;;;;;;;5.68;3.70;;;;;;;;;;5021796;28;20185;-65
2023/09/05 01:35:31;;;;;;;6.30;4.20;;;;;;;;;;5015057;28;20206;-66
2023/09/05 01:37:56;;;;;;;4.72;4.15;;;;;;;;;;5027988;28;20221;-66
2023/09/05 01:40:21;;;;;;;6.40;4.25;;;;;;;;;;5023139;28;20233;-66
2023/09/05 01:42:47;;;;;;;9.85;4.53;;;;;;;;;;5026047;28;20671;-65
2023/09/05 01:45:12;;;;;;;4.72;3.38;;;;;;;;;;5022499;28;20194;-66
2023/09/05 01:47:37;;;;;;;4.22;3.70;;;;;;;;;;5025524;28;20209;-65
2023/09/05 01:50:02;;;;;;;5.80;3.55;;;;;;;;;;5022509;28;20175;-66
2023/09/05 01:52:28;;;;;;;5.38;3.80;;;;;;;;;;5025234;28;20182;-65
2023/09/05 01:54:53;;;;;;;7.60;4.40;;;;;;;;;;5021113;28;20332;-65
2023/09/05 01:57:18;;;;;;;6.72;4.75;;;;;;;;;;5025828;28;20171;-65
2023/09/05 01:59:44;;;;;;;5.68;4.25;;;;;;;;;;5013015;28;20205;-65
2023/09/05 02:02:10;;;;;;;4.70;3.97;;;;;;;;;;5025806;28;20269;-65
2023/09/05 02:04:35;;;;;;;5.43;4.20;;;;;;;;;;5027411;28;20261;-65
2023/09/05 02:07:00;;;;;;;7.13;4.25;;;;;;;;;;5021525;28;20260;-65
2023/09/05 02:09:25;;;;;;;6.00;4.28;;;;;;;;;;5025172;28;20249;-64
2023/09/05 02:11:50;;;;;;;8.07;3.85;;;;;;;;;;5024127;28;20678;-66
2023/09/05 02:14:16;;;;;;;5.35;4.50;;;;;;;;;;5024908;28;20183;-66
2023/09/05 02:16:41;;;;;;;5.70;3.97;;;;;;;;;;5017774;28;20198;-66
2023/09/05 02:19:06;;;;;;;5.32;4.30;;;;;;;;;;5012696;28;20180;-66
2023/09/05 02:21:32;;;;;;;5.72;4.05;;;;;;;;;;5044863;28;20188;-65
2023/09/05 02:23:57;;;;;;;8.23;3.95;;;;;;;;;;5017849;28;20613;-65
2023/09/05 02:26:22;;;;;;;5.60;4.25;;;;;;;;;;5029271;28;20256;-65
2023/09/05 02:28:47;;;;;;;5.72;4.30;;;;;;;;;;5023379;28;20189;-65
2023/09/05 02:31:13;;;;;;;6.22;4.22;;;;;;;;;;5024313;28;20253;-66
2023/09/05 02:33:38;;;;;;;6.97;4.43;;;;;;;;;;5020654;28;20202;-65
2023/09/05 02:36:07;;;;;;;5.13;4.55;;;;;;;;;;5024734;28;20284;-65
2023/09/05 02:38:32;;;;;;;8.05;4.40;;;;;;;;;;5019979;28;20262;-65
2023/09/05 02:40:57;;;;;;;5.07;4.18;;;;;;;;;;5025481;28;20866;-66
2023/09/05 02:43:23;;;;;;;4.60;3.97;;;;;;;;;;5025502;28;20182;-65
2023/09/05 02:45:52;;;;;;;7.78;4.57;;;;;;;;;;5020625;28;20203;-65
2023/09/05 02:48:17;;;;;;;7.68;4.43;;;;;;;;;;5022749;28;20603;-65
2023/09/05 02:50:42;;;;;;;6.18;5.07;;;;;;;;;;5027511;28;20655;-65
2023/09/05 02:53:07;;;;;;;4.80;4.10;;;;;;;;;;5018568;28;20619;-65
2023/09/05 02:55:34;;;;;;;5.65;5.00;;;;;;;;;;5018739;28;20191;-65
2023/09/05 02:58:00;;;;;;;6.03;4.57;;;;;;;;;;5018473;28;20191;-66
2023/09/05 03:00:25;;;;;;;6.00;4.75;;;;;;;;;;5026787;28;20593;-65
2023/09/05 03:02:52;;;;;;;6.95;4.40;;;;;;;;;;5019934;28;20175;-65
2023/09/05 03:05:17;;;;;;;5.05;4.55;;;;;;;;;;5024441;28;20204;-66
2023/09/05 03:07:43;;;;;;;7.43;5.13;;;;;;;;;;5030187;28;20273;-65
2023/09/05 03:10:08;;;;;;;6.57;4.72;;;;;;;;;;5023037;28;20221;-65
2023/09/05 03:12:33;;;;;;;6.78;4.72;;;;;;;;;;5018567;28;20175;-65
2023/09/05 03:14:59;;;;;;;6.72;5.35;;;;;;;;;;5019345;28;20666;-65
2023/09/05 03:17:24;;;;;;;6.60;4.97;;;;;;;;;;5025128;28;20175;-64
2023/09/05 03:19:49;;;;;;;7.00;4.65;;;;;;;;;;5023929;28;20178;-65
2023/09/05 03:22:15;;;;;;;6.95;4.70;;;;;;;;;;5027018;28;20214;-65
2023/09/05 03:24:40;;;;;;;13.02;5.13;;;;;;;;;;5021939;28;20547;-65
2023/09/05 03:27:05;;;;;;;8.80;4.93;;;;;;;;;;5041479;28;20587;-66
2023/09/05 03:29:30;;;;;;;6.60;4.70;;;;;;;;;;5021667;28;20194;-65
2023/09/05 03:31:55;;;;;;;7.03;5.10;;;;;;;;;;5024170;28;20640;-65
2023/09/05 03:34:21;;;;;;;6.20;4.75;;;;;;;;;;5017933;28;20622;-65
2023/09/05 03:36:47;;;;;;;6.63;5.00;;;;;;;;;;5025794;28;20202;-65
2023/09/05 03:39:12;;;;;;;5.80;4.60;;;;;;;;;;5022133;28;20189;-65
2023/09/05 03:41:38;;;;;;;6.38;5.00;;;;;;;;;;5028011;28;20178;-65
2023/09/05 03:44:03;;;;;;;5.25;4.47;;;;;;;;;;5026613;28;20547;-64
2023/09/05 03:46:28;;;;;;;6.28;4.80;;;;;;;;;;5026332;28;20209;-66
2023/09/05 03:48:55;;;;;;;5.63;4.90;;;;;;;;;;5019243;28;20182;-65
2023/09/05 03:51:20;;;;;;;7.80;5.55;;;;;;;;;;5026880;28;20642;-66
2023/09/05 03:53:45;;;;;;;6.40;4.68;;;;;;;;;;5029779;28;20179;-67
2023/09/05 03:56:11;;;;;;;7.85;5.45;;;;;;;;;;5023906;28;20198;-66
2023/09/05 03:58:37;;;;;;;6.00;4.47;;;;;;;;;;5022242;28;20202;-65
2023/09/05 04:01:03;;;;;;;8.10;5.25;;;;;;;;;;5022278;28;20550;-65
2023/09/05 04:03:29;;;;;;;9.27;5.30;;;;;;;;;;5026980;28;20659;-66
2023/09/05 04:05:54;;;;;;;6.03;4.75;;;;;;;;;;5024298;28;20301;-65
2023/09/05 04:08:19;;;;;;;7.28;5.40;;;;;;;;;;5029252;28;20261;-65
2023/09/05 04:10:44;;;;;;;6.05;4.72;;;;;;;;;;5018913;28;20175;-66
2023/09/05 04:13:10;;;;;;;7.68;4.90;;;;;;;;;;5025031;28;20257;-66
2023/09/05 04:15:36;;;;;;;8.73;4.95;;;;;;;;;;5030484;28;20286;-66
2023/09/05 04:18:01;;;;;;;9.00;5.35;;;;;;;;;;5025617;28;20275;-65
2023/09/05 04:20:28;;;;;;;5.32;4.28;;;;;;;;;;5022110;28;20604;-66
2023/09/05 04:22:53;;;;;;;5.70;4.55;;;;;;;;;;5031511;28;20185;-65
2023/09/05 04:25:18;;;;;;;5.75;4.63;;;;;;;;;;5031131;28;20574;-64
2023/09/05 04:27:43;;;;;;;19.55;5.13;;;;;;;;;;5052221;28;20198;-64
2023/09/05 04:30:09;;;;;;;7.32;5.35;;;;;;;;;;5029071;28;20183;-65
2023/09/05 04:32:34;;;;;;;6.43;4.63;;;;;;;;;;5027998;28;20177;-65
2023/09/05 04:35:01;;;;;;;6.25;4.68;;;;;;;;;;5026852;28;20278;-65
2023/09/05 04:37:26;;;;;;;9.10;5.20;;;;;;;;;;5032241;28;20178;-65
2023/09/05 04:39:52;;;;;;;7.30;4.55;;;;;;;;;;5031770;28;20186;-65
2023/09/05 04:42:17;;;;;;;4.63;4.22;;;;;;;;;;5032615;28;20183;-66
2023/09/05 04:44:43;;;;;;;6.30;5.10;;;;;;;;;;5029205;28;20179;-65
2023/09/05 04:47:20;;;;;;;8.88;4.60;;;;;;;;;;5021954;28;20221;-65
2023/09/05 04:49:46;;;;;;;5.75;4.47;;;;;;;;;;5022639;28;20261;-65
2023/09/05 04:52:12;;;;;;;6.18;4.90;;;;;;;;;;5025942;28;20189;-65
2023/09/05 04:54:37;;;;;;;7.25;4.88;;;;;;;;;;5019921;28;20171;-64
2023/09/05 04:57:02;;;;;;;6.70;5.38;;;;;;;;;;5025779;28;20264;-65
2023/09/05 04:59:28;;;;;;;7.45;5.18;;;;;;;;;;5013310;28;20257;-64
2023/09/05 05:01:53;;;;;;;5.97;4.65;;;;;;;;;;5029182;28;20668;-64
2023/09/05 05:04:18;;;;;;;6.78;4.30;;;;;;;;;;5032103;28;20174;-65
2023/09/05 05:06:43;;;;;;;6.40;4.80;;;;;;;;;;5027156;28;20279;-66
2023/09/05 05:09:09;;;;;;;6.40;4.82;;;;;;;;;;5014600;28;20210;-65
2023/09/05 05:11:34;;;;;;;10.15;5.00;;;;;;;;;;5027235;28;20224;-65
2023/09/05 05:13:59;;;;;;;6.30;5.53;;;;;;;;;;5016278;28;20295;-65
2023/09/05 05:16:24;;;;;;;7.13;4.78;;;;;;;;;;5022997;28;20199;-65
2023/09/05 05:18:49;;;;;;;6.82;4.85;;;;;;;;;;5021401;28;20194;-65
2023/09/05 05:21:15;;;;;;;10.20;5.60;;;;;;;;;;5016973;28;20179;-64
2023/09/05 05:23:40;;;;;;;6.53;4.70;;;;;;;;;;5025101;28;20487;-65
2023/09/05 05:26:05;;;;;;;5.78;4.78;;;;;;;;;;5025096;28;20249;-67
2023/09/05 05:28:31;;;;;;;7.25;5.10;;;;;;;;;;5026292;28;20202;-65
2023/09/05 05:30:56;;;;;;;8.60;4.97;;;;;;;;;;5023581;28;20178;-66
2023/09/05 05:33:21;;;;;;;6.28;4.55;;;;;;;;;;5014851;28;20202;-65
2023/09/05 05:35:51;;;;;;;6.55;5.35;;;;;;;;;;5020260;28;20191;-66
2023/09/05 05:38:16;;;;;;;8.63;4.78;;;;;;;;;;5018933;28;20542;-66
2023/09/05 05:40:41;;;;;;;7.93;4.47;;;;;;;;;;5027269;28;20178;-66
2023/09/05 05:43:07;;;;;;;5.57;4.35;;;;;;;;;;5017170;28;20174;-66
2023/09/05 05:45:32;;;;;;;5.25;4.20;;;;;;;;;;5018025;28;20206;-65
2023/09/05 05:47:57;;;;;;;8.32;5.10;;;;;;;;;;5019891;28;20364;-65
2023/09/05 05:50:23;;;;;;;7.68;4.35;;;;;;;;;;5016254;28;20651;-65
2023/09/05 05:52:48;;;;;;;6.88;4.93;;;;;;;;;;5020417;28;20667;-65
2023/09/05 05:55:13;;;;;;;12.20;4.70;;;;;;;;;;5023613;28;20195;-65
2023/09/05 05:57:38;;;;;;;5.65;5.00;;;;;;;;;;5022277;28;20648;-65
2023/09/05 06:00:05;;;;;;;9.70;5.03;;;;;;;;;;5015972;28;20214;-65
2023/09/05 06:02:30;;;;;;;8.07;4.05;;;;;;;;;;5014098;28;20183;-66
2023/09/05 06:04:55;;;;;;;7.15;4.57;;;;;;;;;;5016813;28;20210;-65
2023/09/05 06:07:20;;;;;;;6.18;4.80;;;;;;;;;;5013318;28;20707;-67
2023/09/05 06:09:46;;;;;;;6.03;4.70;;;;;;;;;;5007919;28;20550;-65
2023/09/05 06:12:11;;;;;;;7.65;5.18;;;;;;;;;;5016981;28;20664;-66
2023/09/05 06:14:36;;;;;;;5.65;4.50;;;;;;;;;;5017853;28;20174;-66
2023/09/05 06:17:03;;;;;;;5.35;4.65;;;;;;;;;;5020322;28;20289;-66
2023/09/05 06:19:28;;;;;;;6.35;4.07;;;;;;;;;;5016742;28;20182;-66
2023/09/05 06:21:53;;;;;;;6.55;3.83;;;;;;;;;;5030866;28;20174;-66
2023/09/05 06:24:20;;;;;;;6.15;4.13;;;;;;;;;;5029796;28;20179;-65
2023/09/05 06:26:45;;;;;;;6.75;3.60;;;;;;;;;;5018477;23;20262;-70
2023/09/05 06:29:10;;;;;;;5.30;3.95;;;;;;;;;;5003527;28;20625;-70
2023/09/05 06:31:36;;;;;;;7.18;4.43;;;;;;;;;;4993133;28;20267;-70
2023/09/05 06:34:01;;;;;;;5.75;3.75;;;;;;;;;;5000543;28;20221;-70
2023/09/05 06:36:26;;;;;;;4.57;3.30;;;;;;;;;;4993306;28;20214;-70
2023/09/05 06:38:52;;;;;;;4.45;3.63;;;;;;;;;;4992880;28;20186;-70
2023/09/05 06:41:17;;;;;;;4.25;3.40;;;;;;;;;;4992294;28;20179;-70
2023/09/05 06:43:42;;;;;;;4.63;3.58;;;;;;;;;;4993326;28;20172;-70
2023/09/05 06:46:08;;;;;;;4.85;3.67;;;;;;;;;;4992242;28;20708;-70
2023/09/05 06:48:39;;;;;;;4.18;3.33;;;;;;;;;;4992215;28;20559;-70
2023/09/05 06:51:05;;;;;;;4.35;3.25;;;;;;;;;;4990208;28;20180;-69
2023/09/05 06:53:31;;;;;;;5.43;3.47;;;;;;;;;;4992806;28;20184;-68
2023/09/05 06:55:56;;;;;;;14.30;3.42;;;;;;;;;;4992767;28;20195;-69
2023/09/05 06:58:22;;;;;;;4.97;3.63;;;;;;;;;;4991432;28;20828;-69
2023/09/05 07:00:51;;;;;;;6.22;3.30;;;;;;;;;;4990991;28;20176;-69
2023/09/05 07:03:16;;;;;;;5.75;3.53;;;;;;;;;;4991390;28;20207;-69
2023/09/05 07:05:42;;;;;;;4.78;3.75;;;;;;;;;;4991808;28;20242;-69
2023/09/05 07:08:07;;;;;;;5.18;3.38;;;;;;;;;;4991529;28;20273;-69
2023/09/05 07:10:32;;;;;;;6.95;3.25;;;;;;;;;;4987386;28;20246;-70
2023/09/05 07:12:57;;;;;;;4.43;3.30;;;;;;;;;;4988046;28;20175;-69
2023/09/05 07:15:23;;;;;;;5.80;3.75;;;;;;;;;;4989441;28;20208;-70
2023/09/05 07:17:49;;;;;;;5.00;3.20;;;;;;;;;;4996152;28;20298;-70
2023/09/05 07:20:14;;;;;;;4.97;3.13;;;;;;;;;;4995912;28;20184;-70
2023/09/05 07:22:39;;;;;;;4.53;3.25;;;;;;;;;;4995114;28;20721;-68
2023/09/05 07:25:05;;;;;;;5.43;3.08;;;;;;;;;;4994946;28;20535;-69
2023/09/05 07:27:30;;;;;;;3.72;2.72;;;;;;;;;;4995632;28;20299;-69
2023/09/05 07:29:55;;;;;;;5.65;3.03;;;;;;;;;;4996082;28;20176;-69
2023/09/05 07:32:20;;;;;;;3.83;3.05;;;;;;;;;;4994197;28;20243;-69
2023/09/05 07:34:48;;;;;;;18.50;3.20;;;;;;;;;;4993113;28;20725;-69
2023/09/05 07:37:15;;;;;;;3.50;2.60;;;;;;;;;;4994648;28;20239;-69
2023/09/05 07:39:42;;;;;;;3.97;2.33;;;;;;;;;;4995703;28;20180;-69
2023/09/05 07:42:08;;;;;;;3.85;2.58;;;;;;;;;;4996018;28;20654;-69
2023/09/05 07:44:33;;;;;;;2.63;2.22;;;;;;;;;;4996478;28;20187;-69
2023/09/05 07:46:58;;;;;;;5.20;2.58;;;;;;;;;;4995557;28;20207;-69
2023/09/05 07:49:23;;;;;;;4.45;3.10;;;;;;;;;;4996236;28;20187;-69
2023/09/05 07:51:49;;;;;;;3.13;2.73;;;;;;;;;;4996619;28;20263;-69
2023/09/05 07:54:16;;;;;;;3.28;2.45;;;;;;;;;;4994224;28;20413;-69
2023/09/05 07:56:41;;;;;;;4.90;2.58;;;;;;;;;;4994759;28;20731;-71
2023/09/05 07:59:07;;;;;;;3.63;2.63;;;;;;;;;;4996048;28;20191;-69
2023/09/05 08:01:32;;;;;;;3.03;2.60;;;;;;;;;;4995385;28;20180;-69
2023/09/05 08:03:58;;;;;;;5.20;2.30;;;;;;;;;;4995720;28;20179;-69
2023/09/05 08:06:23;;;;;;;4.82;2.05;;;;;;;;;;4994432;28;20307;-70
2023/09/05 08:08:48;;;;;;;3.72;2.13;;;;;;;;;;4995856;28;20195;-69
2023/09/05 08:11:13;;;;;;;4.13;2.40;;;;;;;;;;4995876;28;20553;-69
2023/09/05 08:13:39;;;;;;;3.63;2.38;;;;;;;;;;4995536;28;20167;-70
2023/09/05 08:16:05;;;;;;;5.43;3.33;;;;;;;;;;4987635;28;20282;-69
2023/09/05 08:18:30;;;;;;;4.50;2.85;;;;;;;;;;4995613;28;20180;-70
2023/09/05 08:20:57;;;;;;;2.97;2.47;;;;;;;;;;4995541;28;20175;-70
2023/09/05 08:23:23;;;;;;;3.85;2.92;;;;;;;;;;4995360;28;20172;-70
2023/09/05 08:25:51;;;;;;;5.07;3.72;;;;;;;;;;4991759;28;20214;-70
2023/09/05 08:28:16;;;;;;;7.35;2.40;;;;;;;;;;4994130;28;20246;-70
2023/09/05 08:30:41;;;;;;;2.30;1.85;;;;;;;;;;4988552;28;20654;-70
2023/09/05 08:33:06;;;;;;;3.25;2.10;;;;;;;;;;4989744;28;20180;-70
2023/09/05 08:35:32;;;;;;;4.70;1.93;;;;;;;;;;4993856;28;20191;-70
2023/09/05 08:38:02;;;;;;;5.60;2.50;;;;;;;;;;4993113;28;20418;-71
2023/09/05 08:40:28;;;;;;;3.47;2.08;;;;;;;;;;4994183;28;20413;-71
2023/09/05 08:42:53;;;;;;;2.88;1.63;;;;;;;;;;4994482;28;20269;-70
2023/09/05 08:45:22;;;;;;;4.82;2.10;;;;;;;;;;4994447;28;20179;-70
2023/09/05 08:47:48;;;;;;;1.92;1.73;;;;;;;;;;4992395;28;20215;-69
2023/09/05 08:50:13;;;;;;;2.47;1.60;;;;;;;;;;4994077;28;20550;-70
2023/09/05 08:52:41;;;;;;;3.22;2.33;;;;;;;;;;4992932;28;20180;-70
2023/09/05 08:55:07;;;;;;;2.97;2.00;;;;;;;;;;4986148;28;20195;-70
2023/09/05 08:57:34;;;;;;;3.00;1.67;;;;;;;;;;4993523;28;20218;-70
2023/09/05 09:00:04;;;;;;;2.63;2.13;;;;;;;;;;4994315;28;20180;-70
2023/09/05 09:02:29;;;;;;;2.35;2.08;;;;;;;;;;4992162;28;20179;-71
2023/09/05 09:04:58;;;;;;;3.80;2.35;;;;;;;;;;4992897;28;20175;-70
2023/09/05 09:07:27;;;;;;;2.70;1.67;;;;;;;;;;4992322;28;20264;-70
2023/09/05 09:09:53;;;;;;;6.20;2.25;;;;;;;;;;4993759;28;20634;-71
2023/09/05 09:12:25;;;;;;;2.97;1.90;;;;;;;;;;4994160;28;20183;-71
2023/09/05 09:14:52;;;;;;;8.43;2.40;;;;;;;;;;5006987;28;20180;-71
2023/09/05 09:17:18;;;;;;;3.25;2.15;;;;;;;;;;4994544;28;20334;-71
2023/09/05 09:19:43;;;;;;;5.22;2.40;;;;;;;;;;4994281;28;20175;-69
2023/09/05 09:22:09;;;;;;;2.35;2.08;;;;;;;;;;4993795;28;20226;-69
2023/09/05 09:24:35;;;;;;;2.90;2.17;;;;;;;;;;4991406;28;20183;-69
2023/09/05 09:27:05;;;;;;;3.13;1.70;;;;;;;;;;4995010;28;20622;-69
2023/09/05 09:29:33;;;;;;;3.25;2.08;;;;;;;;;;4994856;28;20199;-69
2023/09/05 09:32:05;;;;;;;2.63;2.20;;;;;;;;;;4994658;28;20203;-69
2023/09/05 09:34:31;;;;;;;3.67;1.98;;;;;;;;;;4993163;28;20184;-69
2023/09/05 09:36:57;;;;;;;2.20;2.00;;;;;;;;;;4993838;28;20274;-70
2023/09/05 09:39:23;;;;;;;4.28;2.30;;;;;;;;;;4993339;28;20179;-69
2023/09/05 09:41:48;;;;;;;4.13;2.63;;;;;;;;;;4993997;28;20195;-69
2023/09/05 09:44:24;;;;;;;4.05;2.10;;;;;;;;;;4993624;28;20421;-69
2023/09/05 09:46:50;;;;;;;3.38;2.22;;;;;;;;;;4994074;28;20210;-69
2023/09/05 09:49:15;;;;;;;3.35;2.20;;;;;;;;;;4994545;28;20179;-69
2023/09/05 09:51:40;;;;;;;3.53;2.22;;;;;;;;;;4994367;28;20160;-69
2023/09/05 09:54:06;;;;;;;3.20;2.30;;;;;;;;;;4993020;28;20191;-69
2023/09/05 09:56:33;;;;;;;7.43;2.40;;;;;;;;;;4984531;28;20199;-69
2023/09/05 09:58:59;;;;;;;4.32;1.80;;;;;;;;;;4989317;28;21193;-70
2023/09/05 10:01:26;;;;;;;2.55;2.25;;;;;;;;;;4991115;28;20238;-70
2023/09/05 10:03:51;;;;;;;3.88;2.25;;;;;;;;;;4993061;28;20234;-69
2023/09/05 10:06:17;;;;;;;3.72;2.63;;;;;;;;;;4998741;28;20203;-69
2023/09/05 10:08:43;;;;;;;3.33;1.95;;;;;;;;;;5003912;28;20198;-70
2023/09/05 10:11:10;;;;;;;4.25;2.30;;;;;;;;;;5005029;28;20172;-70
2023/09/05 10:13:35;;;;;;;2.78;1.90;;;;;;;;;;5003195;28;20658;-71
2023/09/05 10:16:03;;;;;;;2.70;2.22;;;;;;;;;;5000422;28;20289;-71
2023/09/05 10:18:29;;;;;;;3.05;2.22;;;;;;;;;;5001240;28;20614;-69
2023/09/05 10:20:55;;;;;;;3.67;2.30;;;;;;;;;;5000882;28;20210;-70
2023/09/05 10:23:23;;;;;;;2.28;2.05;;;;;;;;;;4997796;28;20183;-70
2023/09/05 10:25:49;;;;;;;3.00;2.25;;;;;;;;;;4997379;28;20298;-69
2023/09/05 10:28:14;;;;;;;3.30;1.95;;;;;;;;;;4996580;28;20247;-70
2023/09/05 10:30:43;;;;;;;3.75;2.38;;;;;;;;;;4998659;28;20183;-71
2023/09/05 10:33:12;;;;;;;3.28;2.10;;;;;;;;;;4997735;28;20190;-69
2023/09/05 10:35:42;;;;;;;3.92;2.25;;;;;;;;;;4997105;28;20346;-70
2023/09/05 10:38:08;;;;;;;5.22;2.28;;;;;;;;;;4996467;28;20721;-70
2023/09/05 10:40:37;;;;;;;4.90;2.40;;;;;;;;;;4992321;28;20247;-69
2023/09/05 10:43:04;;;;;;;2.33;1.83;;;;;;;;;;4993538;28;20176;-70
2023/09/05 10:45:30;;;;;;;3.40;2.38;;;;;;;;;;4992065;28;20257;-71
2023/09/05 10:48:12;;;;;;;3.83;2.00;;;;;;;;;;4994074;28;20266;-70
2023/09/05 10:50:56;;;;;;;3.85;2.20;;;;;;;;;;4996546;28;20172;-70
2023/09/05 10:53:22;;;;;;;2.70;1.83;;;;;;;;;;4998203;28;20704;-70
2023/09/05 10:55:50;;;;;;;2.78;2.30;;;;;;;;;;4993916;28;20287;-70
2023/09/05 10:58:34;;;;;;;3.38;2.00;;;;;;;;;;4997756;28;20214;-69
2023/09/05 11:01:00;;;;;;;4.15;2.30;;;;;;;;;;4986092;28;20184;-70
2023/09/05 11:03:34;;;;;;;3.72;2.50;;;;;;;;;;4996099;28;20709;-69
2023/09/05 11:06:00;;;;;;;5.53;2.45;;;;;;;;;;4992978;28;20289;-70
2023/09/05 11:08:26;;;;;;;2.92;2.05;;;;;;;;;;4995300;28;20274;-70
2023/09/05 11:10:53;;;;;;;3.30;2.05;;;;;;;;;;4996676;28;20176;-70
2023/09/05 11:13:18;;;;;;;4.97;2.33;;;;;;;;;;4996940;28;20185;-70
2023/09/05 11:15:44;;;;;;;4.13;2.50;;;;;;;;;;4996486;28;20270;-71
2023/09/05 11:18:11;;;;;;;2.97;2.03;;;;;;;;;;4992036;28;20270;-70
2023/09/05 11:20:40;;;;;;;2.45;2.05;;;;;;;;;;4995898;28;20213;-70
2023/09/05 11:23:18;;;;;;;4.22;2.17;;;;;;;;;;4995856;28;20587;-71
2023/09/05 11:25:47;;;;;;;4.60;1.80;;;;;;;;;;4989870;28;20216;-70
2023/09/05 11:28:13;;;;;;;3.70;2.05;;;;;;;;;;4996095;28;20210;-69
2023/09/05 11:30:41;;;;;;;2.50;2.13;;;;;;;;;;4997093;28;20559;-69
2023/09/05 11:33:10;;;;;;;2.63;2.13;;;;;;;;;;4996769;28;20180;-69
2023/09/05 11:35:38;;;;;;;5.50;2.33;;;;;;;;;;4996994;28;20218;-70
2023/09/05 11:38:03;;;;;;;2.00;1.85;;;;;;;;;;4994968;28;20253;-70
2023/09/05 11:40:30;;;;;;;2.63;1.70;;;;;;;;;;4994992;28;20606;-70
2023/09/05 11:43:06;;;;;;;1.85;1.60;;;;;;;;;;4994361;28;20204;-71
2023/09/05 11:45:32;;;;;;;3.50;1.60;;;;;;;;;;4996414;28;20706;-71
2023/09/05 11:47:58;;;;;;;2.22;1.90;;;;;;;;;;4995435;28;20273;-70
2023/09/05 11:50:24;;;;;;;4.38;1.90;;;;;;;;;;4995575;28;20653;-70
2023/09/05 11:52:51;;;;;;;3.53;1.90;;;;;;;;;;4995771;28;20599;-71
2023/09/05 11:55:16;;;;;;;1.95;1.70;;;;;;;;;;4997363;28;20175;-71
2023/09/05 11:57:41;;;;;;;6.55;2.33;;;;;;;;;;4993859;28;20270;-70
2023/09/05 12:00:11;;;;;;;3.08;2.38;;;;;;;;;;4990175;28;20191;-70
2023/09/05 12:02:37;;;;;;;3.80;2.38;;;;;;;;;;4991166;28;20179;-70
2023/09/05 12:05:04;;;;;;;3.78;2.47;;;;;;;;;;4994191;28;20186;-70
2023/09/05 12:07:30;;;;;;;7.78;2.28;;;;;;;;;;4994676;28;20207;-70
2023/09/05 12:09:55;;;;;;;3.20;2.30;;;;;;;;;;4995448;28;20183;-71
2023/09/05 12:12:21;;;;;;;2.28;1.63;;;;;;;;;;4994617;28;20206;-70
2023/09/05 12:14:46;;;;;;;4.32;2.40;;;;;;;;;;4994128;28;20171;-70
2023/09/05 12:17:14;;;;;;;3.37;2.23;;;;;;;;;;4995565;28;20191;-70
2023/09/05 12:19:39;;;;;;;5.55;2.08;;;;;;;;;;4995025;28;20671;-69
2023/09/05 12:22:04;;;;;;;3.43;1.97;;;;;;;;;;4993639;28;20266;-70
2023/09/05 12:24:31;;;;;;;5.23;2.07;;;;;;;;;;4994474;28;20189;-70
2023/09/05 12:26:59;;;;;;;5.53;2.30;;;;;;;;;;5029751;22;20490;-65
2023/09/05 12:29:37;;;;;;;2.40;1.90;;;;;;;;;;5032155;28;20643;-65
2023/09/05 12:32:02;;;;;;;3.22;2.30;;;;;;;;;;5026819;28;20185;-66
2023/09/05 12:34:28;;;;;;;3.35;2.00;;;;;;;;;;5030966;28;20175;-65
2023/09/05 12:36:53;;;;;;;7.30;2.47;;;;;;;;;;5032138;28;20280;-66
2023/09/05 12:39:18;;;;;;;2.40;1.93;;;;;;;;;;5024616;28;20606;-66
2023/09/05 12:41:43;;;;;;;5.20;2.00;;;;;;;;;;5027623;28;20462;-65
2023/09/05 12:44:09;;;;;;;2.47;1.97;;;;;;;;;;5018026;28;20552;-65
2023/09/05 12:46:34;;;;;;;2.38;1.88;;;;;;;;;;5028047;28;20949;-64
2023/09/05 12:48:59;;;;;;;5.05;1.55;;;;;;;;;;5031608;28;20178;-66
2023/09/05 12:51:25;;;;;;;3.67;1.90;;;;;;;;;;5023582;28;20182;-65
2023/09/05 12:53:50;;;;;;;2.67;1.77;;;;;;;;;;5022611;28;20268;-66
2023/09/05 12:56:15;;;;;;;3.23;1.73;;;;;;;;;;5018945;28;20440;-65
2023/09/05 12:58:41;;;;;;;2.35;1.80;;;;;;;;;;5018216;28;20415;-65
2023/09/05 13:01:06;;;;;;;4.57;1.60;;;;;;;;;;5023462;28;20580;-65
2023/09/05 13:03:32;;;;;;;5.47;2.17;;;;;;;;;;5015067;28;20455;-65
2023/09/05 13:05:57;;;;;;;1.90;1.73;;;;;;;;;;5019577;28;20202;-66
2023/09/05 13:08:22;;;;;;;3.00;2.00;;;;;;;;;;5018321;28;20212;-66
2023/09/05 13:10:47;;;;;;;2.38;1.85;;;;;;;;;;5031082;28;20177;-65
2023/09/05 13:13:13;;;;;;;3.67;1.80;;;;;;;;;;5015917;28;20214;-65
2023/09/05 13:15:43;;;;;;;3.10;1.57;;;;;;;;;;5018653;28;20699;-65
2023/09/05 13:18:08;;;;;;;3.58;1.85;;;;;;;;;;5022298;28;20419;-64
2023/09/05 13:20:33;;;;;;;2.45;2.15;;;;;;;;;;5029866;28;20178;-65
2023/09/05 13:22:58;;;;;;;4.77;1.80;;;;;;;;;;5024230;28;20209;-65
2023/09/05 13:25:24;;;;;;;2.10;1.77;;;;;;;;;;5016137;28;20971;-66
2023/09/05 13:27:50;;;;;;;3.35;1.50;;;;;;;;;;5031450;28;20586;-66
2023/09/05 13:30:15;;;;;;;2.63;1.77;;;;;;;;;;5027232;28;20621;-64
2023/09/05 13:32:40;;;;;;;2.42;1.77;;;;;;;;;;5018930;28;20562;-66
2023/09/05 13:35:07;;;;;;;3.30;2.13;;;;;;;;;;5013122;28;20265;-65
2023/09/05 13:37:33;;;;;;;3.10;2.03;;;;;;;;;;5027564;28;20288;-64
2023/09/05 13:39:58;;;;;;;2.13;1.80;;;;;;;;;;5022838;28;20281;-65
2023/09/05 13:42:23;;;;;;;3.63;1.60;;;;;;;;;;5024188;28;20418;-65
2023/09/05 13:44:48;;;;;;;3.10;1.50;;;;;;;;;;5016973;28;20711;-65
2023/09/05 13:47:14;;;;;;;2.17;1.50;;;;;;;;;;5019414;28;21015;-65
2023/09/05 13:49:39;;;;;;;3.60;1.87;;;;;;;;;;5024433;28;20177;-65
2023/09/05 13:52:04;;;;;;;1.57;1.47;;;;;;;;;;5023025;28;20411;-65
2023/09/05 13:54:30;;;;;;;3.92;1.85;;;;;;;;;;5026237;28;20407;-64
2023/09/05 13:56:55;;;;;;;2.80;1.53;;;;;;;;;;5018660;28;20349;-65
2023/09/05 13:59:20;;;;;;;2.20;1.70;;;;;;;;;;5011407;28;20182;-64
2023/09/05 14:01:46;;;;;;;3.08;1.73;;;;;;;;;;5014189;28;20450;-64
2023/09/05 14:04:12;;;;;;;3.72;1.50;;;;;;;;;;5017383;28;20313;-65
2023/09/05 14:06:39;;;;;;;2.33;1.38;;;;;;;;;;5020034;28;20242;-65
2023/09/05 14:09:04;;;;;;;1.85;1.60;;;;;;;;;;5017918;28;20170;-66
2023/09/05 14:11:30;;;;;;;11.73;2.20;;;;;;;;;;5015569;28;20205;-66
2023/09/05 14:13:55;;;;;;;2.50;1.60;;;;;;;;;;5011585;28;20812;-66
2023/09/05 14:16:20;;;;;;;3.10;1.80;;;;;;;;;;5019763;28;20194;-66
2023/09/05 14:18:46;;;;;;;2.93;1.60;;;;;;;;;;5012518;28;20411;-65
2023/09/05 14:21:12;;;;;;;2.65;1.83;;;;;;;;;;5016844;28;20925;-66
2023/09/05 14:23:40;;;;;;;2.55;1.45;;;;;;;;;;5019009;28;20178;-66
2023/09/05 14:26:06;;;;;;;3.72;1.58;;;;;;;;;;5016714;28;20228;-66
2023/09/05 14:28:31;;;;;;;2.33;1.35;;;;;;;;;;5022503;28;20252;-66
2023/09/05 14:30:57;;;;;;;6.40;1.67;;;;;;;;;;5025295;28;20277;-66
2023/09/05 14:33:22;;;;;;;5.68;1.80;;;;;;;;;;5024715;28;20498;-66
2023/09/05 14:35:47;;;;;;;3.33;1.40;;;;;;;;;;5027884;28;20273;-65
2023/09/05 14:38:12;;;;;;;2.17;1.70;;;;;;;;;;5022601;28;20186;-66